createdAt,value
2017-08-28T00:00:33.217Z,14.80
2017-08-28T00:03:00.883Z,14.80
2017-08-28T00:05:29.511Z,14.80
2017-08-28T00:07:57.143Z,14.80
2017-08-28T00:10:24.785Z,14.80
2017-08-28T00:12:52.616Z,14.80
2017-08-28T00:15:20.266Z,14.70
2017-08-28T00:17:47.924Z,14.70
2017-08-28T00:20:15.638Z,14.70
2017-08-28T00:22:43.283Z,14.70
2017-08-28T00:25:10.949Z,14.70
2017-08-28T00:27:38.780Z,14.70
2017-08-28T00:30:06.434Z,14.70
2017-08-28T00:32:34.104Z,14.60
2017-08-28T00:35:01.878Z,14.60
2017-08-28T00:37:29.616Z,14.60
2017-08-28T00:39:57.238Z,14.60
2017-08-28T00:42:25.046Z,14.60
2017-08-28T00:44:52.698Z,14.60
2017-08-28T00:47:21.151Z,14.60
2017-08-28T00:49:49.789Z,14.60
2017-08-28T00:52:17.462Z,14.60
2017-08-28T00:54:45.093Z,14.60
2017-08-28T00:57:12.772Z,14.60
2017-08-28T00:59:40.477Z,14.60
2017-08-28T01:02:08.124Z,14.50
2017-08-28T01:04:35.980Z,14.50
2017-08-28T01:07:03.729Z,14.50
2017-08-28T01:09:31.471Z,14.50
2017-08-28T01:11:59.224Z,14.50
2017-08-28T01:14:26.972Z,14.40
2017-08-28T01:16:54.722Z,14.40
2017-08-28T01:19:22.572Z,14.40
2017-08-28T01:21:50.221Z,14.40
2017-08-28T01:24:17.868Z,14.40
2017-08-28T01:26:45.706Z,14.40
2017-08-28T01:29:13.372Z,14.30
2017-08-28T01:31:41.794Z,14.20
2017-08-28T01:34:09.563Z,14.20
2017-08-28T01:36:37.248Z,14.20
2017-08-28T01:39:05.068Z,14.20
2017-08-28T01:41:32.777Z,14.20
2017-08-28T01:44:00.412Z,14.10
2017-08-28T01:46:28.053Z,14.00
2017-08-28T01:48:55.769Z,14.00
2017-08-28T01:51:23.440Z,13.90
2017-08-28T01:53:51.086Z,13.90
2017-08-28T01:56:18.799Z,13.90
2017-08-28T01:58:46.438Z,13.90
2017-08-28T02:01:14.101Z,13.90
2017-08-28T02:03:41.954Z,13.90
2017-08-28T02:06:09.626Z,13.80
2017-08-28T02:08:37.306Z,13.80
2017-08-28T02:11:04.997Z,13.80
2017-08-28T02:13:32.667Z,13.80
2017-08-28T02:16:00.310Z,13.80
2017-08-28T02:18:27.966Z,13.70
2017-08-28T02:20:55.624Z,13.70
2017-08-28T02:23:23.271Z,13.70
2017-08-28T02:25:51.116Z,13.70
2017-08-28T02:28:18.774Z,13.70
2017-08-28T02:30:46.540Z,13.70
2017-08-28T02:33:14.248Z,13.70
2017-08-28T02:35:41.926Z,13.70
2017-08-28T02:38:09.592Z,13.70
2017-08-28T02:40:37.289Z,13.60
2017-08-28T02:43:04.937Z,13.60
2017-08-28T02:45:32.603Z,13.60
2017-08-28T02:48:00.300Z,13.60
2017-08-28T02:50:27.960Z,13.60
2017-08-28T02:52:55.620Z,13.60
2017-08-28T02:55:23.426Z,13.60
2017-08-28T02:57:51.074Z,13.50
2017-08-28T03:00:18.745Z,13.50
2017-08-28T03:02:46.421Z,13.50
2017-08-28T03:05:14.067Z,13.40
2017-08-28T03:07:41.959Z,13.40
2017-08-28T03:10:09.744Z,13.40
2017-08-28T03:12:37.389Z,13.40
2017-08-28T03:15:05.053Z,13.40
2017-08-28T03:17:32.854Z,13.40
2017-08-28T03:20:00.522Z,13.40
2017-08-28T03:22:28.182Z,13.40
2017-08-28T03:24:55.924Z,13.30
2017-08-28T03:27:23.658Z,13.40
2017-08-28T03:29:51.376Z,13.40
2017-08-28T03:32:19.127Z,13.40
2017-08-28T03:34:46.861Z,13.40
2017-08-28T03:37:15.426Z,13.40
2017-08-28T03:39:43.205Z,13.50
2017-08-28T03:42:11.021Z,13.50
2017-08-28T03:44:38.762Z,13.60
2017-08-28T03:47:06.626Z,13.60
2017-08-28T03:49:34.361Z,13.70
2017-08-28T03:52:02.114Z,13.70
2017-08-28T03:54:29.850Z,13.70
2017-08-28T03:56:58.401Z,13.70
2017-08-28T03:59:26.056Z,13.70
2017-08-28T04:01:53.891Z,13.60
2017-08-28T04:04:21.531Z,13.60
2017-08-28T04:06:49.173Z,13.50
2017-08-28T04:09:16.999Z,13.50
2017-08-28T04:11:44.642Z,13.50
2017-08-28T04:14:12.286Z,13.50
2017-08-28T04:16:39.981Z,13.40
2017-08-28T04:19:07.642Z,13.40
2017-08-28T04:21:35.261Z,13.40
2017-08-28T04:24:02.955Z,13.40
2017-08-28T04:26:31.025Z,13.40
2017-08-28T04:28:58.711Z,13.40
2017-08-28T04:31:26.502Z,13.40
2017-08-28T04:33:54.136Z,13.50
2017-08-28T04:36:21.812Z,13.50
2017-08-28T04:38:49.741Z,13.50
2017-08-28T04:41:17.478Z,13.60
2017-08-28T04:43:45.149Z,13.70
2017-08-28T04:46:12.929Z,13.80
2017-08-28T04:48:40.605Z,13.80
2017-08-28T04:51:08.268Z,13.90
2017-08-28T04:53:36.015Z,14.10
2017-08-28T04:56:03.722Z,14.20
2017-08-28T04:58:31.400Z,14.30
2017-08-28T05:00:59.112Z,14.50
2017-08-28T05:03:26.797Z,14.50
2017-08-28T05:05:54.541Z,14.60
2017-08-28T05:08:22.325Z,14.80
2017-08-28T05:10:49.972Z,15.60
2017-08-28T05:13:17.616Z,16.70
2017-08-28T05:15:45.343Z,16.90
2017-08-28T05:18:13.038Z,16.70
2017-08-28T05:20:40.724Z,16.30
2017-08-28T05:23:08.445Z,16.10
2017-08-28T05:25:36.235Z,15.80
2017-08-28T05:28:04.081Z,15.70
2017-08-28T05:30:31.819Z,15.70
2017-08-28T05:32:59.566Z,15.80
2017-08-28T05:35:27.306Z,15.80
2017-08-28T05:37:55.026Z,15.80
2017-08-28T05:40:22.678Z,15.90
2017-08-28T05:42:50.340Z,16.20
2017-08-28T05:45:18.100Z,16.50
2017-08-28T05:47:45.851Z,17.00
2017-08-28T05:50:13.513Z,18.80
2017-08-28T05:52:41.200Z,21.20
2017-08-28T05:55:08.862Z,22.20
2017-08-28T05:57:36.488Z,21.70
2017-08-28T06:00:04.315Z,21.00
2017-08-28T06:02:32.721Z,19.80
2017-08-28T06:05:00.371Z,19.80
2017-08-28T06:07:28.142Z,19.40
2017-08-28T06:09:55.788Z,19.20
2017-08-28T06:12:23.437Z,19.10
2017-08-28T06:14:51.211Z,19.30
2017-08-28T06:17:19.025Z,20.50
2017-08-28T06:19:46.770Z,22.70
2017-08-28T06:22:14.484Z,24.60
2017-08-28T06:24:42.123Z,26.20
2017-08-28T06:27:09.757Z,27.40
2017-08-28T06:29:37.631Z,28.10
2017-08-28T06:32:05.280Z,28.20
2017-08-28T06:34:32.947Z,27.50
2017-08-28T06:37:00.735Z,26.90
2017-08-28T06:39:28.376Z,26.50
2017-08-28T06:41:56.794Z,25.80
2017-08-28T06:44:24.675Z,25.80
2017-08-28T06:46:52.326Z,25.40
2017-08-28T06:49:20.017Z,25.10
2017-08-28T06:51:48.656Z,24.60
2017-08-28T06:54:16.319Z,24.60
2017-08-28T06:56:44.081Z,24.50
2017-08-28T06:59:11.749Z,24.40
2017-08-28T07:01:39.450Z,24.40
2017-08-28T07:04:07.062Z,24.10
2017-08-28T07:06:34.879Z,23.60
2017-08-28T07:09:02.555Z,23.20
2017-08-28T07:11:30.235Z,22.80
2017-08-28T07:13:58.183Z,22.70
2017-08-28T07:16:28.808Z,22.70
2017-08-28T07:18:56.430Z,22.80
2017-08-28T07:21:24.226Z,23.00
2017-08-28T07:23:51.865Z,23.00
2017-08-28T07:26:19.522Z,23.00
2017-08-28T07:28:47.975Z,22.90
2017-08-28T07:31:15.619Z,22.90
2017-08-28T07:33:43.345Z,23.10
2017-08-28T07:36:11.051Z,23.20
2017-08-28T07:38:38.700Z,23.20
2017-08-28T07:41:06.340Z,23.30
2017-08-28T07:43:34.019Z,23.40
2017-08-28T07:46:01.777Z,23.70
2017-08-28T07:48:29.525Z,23.80
2017-08-28T07:50:57.264Z,23.90
2017-08-28T07:53:24.901Z,24.00
2017-08-28T07:55:52.657Z,23.70
2017-08-28T07:58:20.343Z,23.70
2017-08-28T08:00:48.774Z,23.70
2017-08-28T08:03:16.510Z,23.70
2017-08-28T08:05:44.203Z,23.90
2017-08-28T08:08:11.908Z,24.20
2017-08-28T08:10:39.529Z,24.30
2017-08-28T08:13:07.250Z,24.30
2017-08-28T08:15:34.890Z,24.30
2017-08-28T08:18:03.297Z,24.50
2017-08-28T08:20:31.091Z,24.50
2017-08-28T08:22:58.920Z,24.60
2017-08-28T08:25:26.561Z,24.60
2017-08-28T08:27:54.409Z,24.70
2017-08-28T08:30:22.015Z,24.80
2017-08-28T08:32:49.688Z,25.10
2017-08-28T08:35:17.584Z,25.30
2017-08-28T08:37:45.190Z,25.40
2017-08-28T08:40:12.859Z,25.60
2017-08-28T08:42:40.545Z,25.70
2017-08-28T08:45:08.222Z,25.50
2017-08-28T08:47:35.843Z,25.60
2017-08-28T08:50:03.897Z,25.60
2017-08-28T08:52:31.675Z,25.80
2017-08-28T08:54:59.329Z,26.20
2017-08-28T08:57:27.150Z,26.40
2017-08-28T08:59:54.773Z,26.30
2017-08-28T09:02:22.432Z,26.20
2017-08-28T09:04:50.134Z,26.00
2017-08-28T09:07:18.585Z,25.70
2017-08-28T09:09:46.214Z,25.70
2017-08-28T09:12:13.912Z,25.80
2017-08-28T09:14:41.614Z,25.90
2017-08-28T09:17:10.178Z,25.80
2017-08-28T09:19:37.855Z,25.80
2017-08-28T09:22:06.280Z,25.80
2017-08-28T09:24:33.906Z,25.70
2017-08-28T09:27:01.620Z,25.80
2017-08-28T09:29:29.270Z,25.80
2017-08-28T09:31:57.075Z,26.00
2017-08-28T09:34:24.934Z,25.90
2017-08-28T09:36:52.567Z,26.10
2017-08-28T09:39:20.212Z,26.30
2017-08-28T09:41:47.974Z,26.40
2017-08-28T09:44:15.649Z,26.60
2017-08-28T09:46:44.087Z,27.10
2017-08-28T09:49:11.799Z,27.10
2017-08-28T09:51:39.584Z,27.50
2017-08-28T09:54:07.263Z,27.70
2017-08-28T09:56:35.217Z,27.50
2017-08-28T09:59:02.923Z,27.30
2017-08-28T10:01:30.625Z,27.40
2017-08-28T10:03:58.302Z,27.50
2017-08-28T10:06:25.944Z,27.70
2017-08-28T10:08:53.606Z,27.90
2017-08-28T10:11:21.307Z,27.80
2017-08-28T10:13:48.927Z,27.80
2017-08-28T10:16:16.654Z,27.90
2017-08-28T10:18:44.488Z,28.00
2017-08-28T10:21:12.187Z,28.00
2017-08-28T10:23:39.877Z,27.70
2017-08-28T10:26:07.822Z,27.70
2017-08-28T10:28:35.546Z,28.00
2017-08-28T10:31:03.212Z,28.00
2017-08-28T10:33:31.013Z,28.00
2017-08-28T10:36:00.059Z,27.80
2017-08-28T10:38:27.722Z,27.80
2017-08-28T10:40:55.429Z,27.90
2017-08-28T10:43:23.088Z,27.70
2017-08-28T10:45:50.727Z,27.50
2017-08-28T10:48:18.442Z,27.40
2017-08-28T10:50:46.072Z,27.60
2017-08-28T10:53:16.704Z,28.00
2017-08-28T10:55:44.388Z,28.00
2017-08-28T10:58:12.033Z,27.80
2017-08-28T11:00:39.643Z,27.50
2017-08-28T11:03:07.384Z,27.20
2017-08-28T11:05:35.047Z,27.00
2017-08-28T11:08:02.722Z,27.20
2017-08-28T11:10:31.412Z,27.20
2017-08-28T11:12:59.145Z,27.40
2017-08-28T11:15:26.799Z,27.40
2017-08-28T11:17:54.523Z,27.40
2017-08-28T11:20:22.179Z,27.30
2017-08-28T11:22:49.804Z,26.90
2017-08-28T11:25:17.547Z,26.80
2017-08-28T11:27:46.507Z,26.90
2017-08-28T11:30:14.142Z,27.20
2017-08-28T11:32:41.862Z,27.40
2017-08-28T11:35:09.550Z,27.50
2017-08-28T11:37:37.239Z,27.50
2017-08-28T11:40:08.437Z,27.60
2017-08-28T11:42:36.107Z,27.50
2017-08-28T11:45:03.746Z,27.60
2017-08-28T11:47:31.441Z,27.60
2017-08-28T11:49:59.081Z,27.80
2017-08-28T11:52:27.501Z,27.50
2017-08-28T11:54:55.932Z,27.40
2017-08-28T11:57:23.583Z,27.40
2017-08-28T11:59:51.224Z,27.10
2017-08-28T12:02:18.944Z,27.10
2017-08-28T12:04:46.759Z,26.90
2017-08-28T12:07:14.457Z,26.90
2017-08-28T12:09:42.169Z,26.80
2017-08-28T12:12:09.795Z,27.00
2017-08-28T12:14:37.465Z,27.20
2017-08-28T12:17:05.164Z,27.30
2017-08-28T12:19:32.809Z,27.30
2017-08-28T12:22:00.474Z,27.20
2017-08-28T12:24:28.168Z,27.00
2017-08-28T12:26:55.805Z,26.90
2017-08-28T12:29:24.232Z,26.90
2017-08-28T12:31:52.097Z,26.90
2017-08-28T12:34:19.746Z,26.90
2017-08-28T12:36:47.497Z,27.10
2017-08-28T12:39:15.182Z,27.30
2017-08-28T12:41:42.843Z,27.40
2017-08-28T12:44:10.478Z,27.30
2017-08-28T12:46:38.223Z,27.30
2017-08-28T12:49:05.860Z,27.20
2017-08-28T12:51:33.537Z,27.30
2017-08-28T12:54:01.249Z,27.20
2017-08-28T12:56:28.923Z,27.10
2017-08-28T12:58:56.568Z,27.10
2017-08-28T13:01:24.369Z,26.90
2017-08-28T13:03:52.892Z,26.80
2017-08-28T13:06:20.515Z,26.70
2017-08-28T13:08:48.210Z,26.40
2017-08-28T13:11:15.861Z,26.00
2017-08-28T13:13:43.526Z,25.90
2017-08-28T13:16:12.077Z,25.80
2017-08-28T13:18:39.811Z,25.70
2017-08-28T13:21:07.451Z,25.70
2017-08-28T13:23:35.266Z,25.90
2017-08-28T13:26:03.869Z,26.00
2017-08-28T13:28:32.609Z,26.00
2017-08-28T13:31:00.347Z,26.10
2017-08-28T13:33:27.992Z,26.10
2017-08-28T13:35:55.633Z,26.00
2017-08-28T13:38:24.079Z,26.10
2017-08-28T13:40:51.716Z,26.30
2017-08-28T13:43:19.366Z,26.40
2017-08-28T13:45:47.051Z,26.50
2017-08-28T13:48:15.303Z,26.60
2017-08-28T13:50:43.213Z,26.70
2017-08-28T13:53:11.090Z,26.80
2017-08-28T13:55:38.739Z,26.80
2017-08-28T13:58:06.548Z,26.80
2017-08-28T14:00:35.184Z,26.80
2017-08-28T14:03:02.841Z,26.80
2017-08-28T14:05:31.238Z,26.80
2017-08-28T14:08:02.804Z,26.70
2017-08-28T14:10:30.438Z,26.40
2017-08-28T14:12:58.076Z,26.00
2017-08-28T14:15:28.549Z,26.00
2017-08-28T14:17:56.415Z,25.90
2017-08-28T14:20:24.061Z,26.00
2017-08-28T14:22:51.790Z,26.10
2017-08-28T14:25:19.435Z,26.20
2017-08-28T14:27:47.123Z,26.30
2017-08-28T14:30:14.805Z,26.40
2017-08-28T14:32:42.449Z,26.30
2017-08-28T14:35:10.100Z,26.20
2017-08-28T14:37:37.787Z,25.80
2017-08-28T14:40:05.450Z,25.60
2017-08-28T14:42:33.103Z,24.70
2017-08-28T14:45:00.793Z,25.60
2017-08-28T14:47:30.285Z,25.70
2017-08-28T14:49:57.922Z,25.80
2017-08-28T14:52:25.689Z,25.80
2017-08-28T14:54:53.381Z,25.90
2017-08-28T14:57:21.030Z,25.90
2017-08-28T14:59:48.847Z,25.90
2017-08-28T15:02:16.484Z,25.80
2017-08-28T15:04:44.163Z,25.80
2017-08-28T15:07:11.839Z,25.90
2017-08-28T15:09:39.636Z,25.80
2017-08-28T15:12:07.272Z,25.80
2017-08-28T15:14:35.028Z,25.70
2017-08-28T15:17:02.681Z,25.60
2017-08-28T15:19:30.367Z,25.50
2017-08-28T15:21:58.101Z,25.50
2017-08-28T15:24:25.739Z,25.50
2017-08-28T15:26:53.377Z,25.40
2017-08-28T15:29:21.196Z,25.40
2017-08-28T15:31:48.852Z,25.30
2017-08-28T15:34:16.601Z,25.20
2017-08-28T15:36:44.451Z,25.20
2017-08-28T15:39:12.066Z,25.10
2017-08-28T15:41:39.697Z,25.10
2017-08-28T15:44:07.399Z,25.10
2017-08-28T15:46:35.071Z,25.10
2017-08-28T15:49:02.732Z,25.00
2017-08-28T15:51:30.442Z,25.10
2017-08-28T15:53:58.074Z,25.00
2017-08-28T15:56:25.813Z,24.90
2017-08-28T15:58:53.573Z,24.90
2017-08-28T16:01:21.231Z,24.90
2017-08-28T16:03:48.895Z,24.90
2017-08-28T16:06:17.632Z,24.90
2017-08-28T16:08:45.327Z,24.90
2017-08-28T16:11:12.969Z,24.90
2017-08-28T16:13:40.708Z,24.80
2017-08-28T16:16:08.522Z,24.80
2017-08-28T16:18:36.364Z,24.90
2017-08-28T16:21:04.076Z,24.90
2017-08-28T16:23:31.717Z,24.80
2017-08-28T16:25:59.375Z,24.70
2017-08-28T16:28:27.118Z,24.80
2017-08-28T16:30:54.891Z,24.80
2017-08-28T16:33:22.553Z,24.90
2017-08-28T16:35:50.269Z,24.90
2017-08-28T16:38:18.054Z,24.90
2017-08-28T16:40:46.034Z,24.90
2017-08-28T16:43:13.708Z,24.90
2017-08-28T16:45:41.328Z,24.90
2017-08-28T16:48:11.403Z,24.80
2017-08-28T16:50:39.187Z,24.70
2017-08-28T16:53:06.990Z,24.60
2017-08-28T16:55:34.840Z,24.50
2017-08-28T16:58:02.567Z,24.50
2017-08-28T17:00:30.224Z,24.40
2017-08-28T17:02:57.893Z,24.40
2017-08-28T17:05:25.717Z,24.30
2017-08-28T17:07:53.460Z,24.20
2017-08-28T17:10:22.866Z,24.00
2017-08-28T17:12:50.806Z,24.00
2017-08-28T17:15:19.532Z,23.90
2017-08-28T17:17:47.241Z,23.70
2017-08-28T17:20:15.171Z,23.70
2017-08-28T17:22:46.623Z,23.60
2017-08-28T17:25:14.580Z,23.50
2017-08-28T17:27:42.747Z,23.40
2017-08-28T17:30:10.369Z,23.30
2017-08-28T17:32:38.073Z,23.20
2017-08-28T17:35:05.743Z,23.10
2017-08-28T17:37:33.385Z,23.00
2017-08-28T17:40:01.062Z,22.90
2017-08-28T17:42:29.123Z,22.80
2017-08-28T17:44:56.848Z,22.70
2017-08-28T17:47:24.803Z,22.60
2017-08-28T17:49:52.542Z,22.50
2017-08-28T17:52:20.532Z,22.40
2017-08-28T17:54:48.300Z,22.30
2017-08-28T17:57:16.884Z,22.20
2017-08-28T17:59:44.600Z,22.10
2017-08-28T18:02:12.407Z,21.90
2017-08-28T18:04:40.101Z,21.80
2017-08-28T18:07:08.374Z,21.80
2017-08-28T18:09:36.181Z,21.70
2017-08-28T18:12:04.644Z,21.60
2017-08-28T18:14:32.397Z,21.50
2017-08-28T18:17:00.733Z,21.40
2017-08-28T18:19:28.712Z,21.30
2017-08-28T18:21:56.560Z,21.20
2017-08-28T18:24:24.716Z,21.10
2017-08-28T18:26:52.476Z,21.10
2017-08-28T18:29:20.240Z,21.00
2017-08-28T18:31:48.879Z,20.90
2017-08-28T18:34:16.569Z,20.80
2017-08-28T18:36:44.291Z,20.80
2017-08-28T18:39:12.244Z,20.70
2017-08-28T18:41:40.694Z,20.60
2017-08-28T18:44:08.479Z,20.60
2017-08-28T18:46:36.217Z,20.60
2017-08-28T18:49:03.842Z,20.50
2017-08-28T18:51:31.612Z,20.50
2017-08-28T18:54:00.261Z,20.30
2017-08-28T18:56:28.003Z,20.40
2017-08-28T18:58:55.840Z,20.30
2017-08-28T19:01:23.809Z,20.30
2017-08-28T19:03:51.690Z,20.20
2017-08-28T19:06:19.524Z,20.20
2017-08-28T19:08:47.451Z,20.20
2017-08-28T19:11:15.447Z,20.20
2017-08-28T19:13:43.320Z,20.10
2017-08-28T19:16:11.305Z,20.20
2017-08-28T19:18:39.271Z,20.10
2017-08-28T19:21:06.879Z,20.10
2017-08-28T19:23:34.927Z,20.10
2017-08-28T19:26:02.609Z,20.10
2017-08-28T19:28:31.598Z,20.10
2017-08-28T19:30:59.300Z,20.10
2017-08-28T19:33:29.172Z,20.00
2017-08-28T19:35:57.329Z,20.00
2017-08-28T19:38:25.178Z,20.00
2017-08-28T19:40:52.972Z,20.00
2017-08-28T19:43:20.678Z,20.00
2017-08-28T19:45:48.930Z,19.90
2017-08-28T19:48:16.551Z,19.90
2017-08-28T19:50:44.228Z,19.80
2017-08-28T19:53:11.974Z,19.80
2017-08-28T19:55:39.661Z,19.70
2017-08-28T19:58:07.314Z,19.60
2017-08-28T20:00:35.120Z,19.60
2017-08-28T20:03:02.758Z,19.60
2017-08-28T20:05:30.413Z,19.50
2017-08-28T20:07:58.142Z,19.50
2017-08-28T20:10:25.887Z,19.40
2017-08-28T20:12:53.526Z,19.40
2017-08-28T20:15:21.339Z,19.30
2017-08-28T20:17:48.971Z,19.30
2017-08-28T20:20:16.887Z,19.20
2017-08-28T20:22:44.609Z,19.20
2017-08-28T20:25:12.266Z,19.10
2017-08-28T20:27:39.980Z,19.10
2017-08-28T20:30:07.710Z,19.10
2017-08-28T20:32:35.395Z,19.10
2017-08-28T20:35:03.030Z,19.00
2017-08-28T20:37:30.766Z,19.00
2017-08-28T20:39:58.432Z,19.00
2017-08-28T20:42:26.104Z,18.90
2017-08-28T20:44:53.820Z,18.90
2017-08-28T20:47:21.478Z,18.90
2017-08-28T20:49:49.129Z,18.90
2017-08-28T20:52:16.840Z,18.80
2017-08-28T20:54:44.493Z,18.80
2017-08-28T20:57:12.129Z,18.80
2017-08-28T20:59:39.829Z,18.80
2017-08-28T21:02:07.470Z,18.70
2017-08-28T21:04:35.116Z,18.70
2017-08-28T21:07:02.808Z,18.70
2017-08-28T21:09:30.450Z,18.60
2017-08-28T21:11:58.277Z,18.60
2017-08-28T21:14:26.005Z,18.60
2017-08-28T21:16:53.685Z,18.50
2017-08-28T21:19:22.118Z,18.50
2017-08-28T21:21:50.074Z,18.50
2017-08-28T21:24:17.712Z,18.50
2017-08-28T21:26:45.365Z,18.40
2017-08-28T21:29:13.093Z,18.40
2017-08-28T21:31:40.738Z,18.40
2017-08-28T21:34:08.396Z,18.30
2017-08-28T21:36:36.097Z,18.30
2017-08-28T21:39:03.757Z,18.20
2017-08-28T21:41:31.377Z,18.20
2017-08-28T21:43:59.104Z,18.20
2017-08-28T21:46:26.715Z,18.20
2017-08-28T21:48:54.404Z,18.10
2017-08-28T21:51:22.233Z,18.10
2017-08-28T21:53:49.985Z,18.00
2017-08-28T21:56:17.627Z,18.00
2017-08-28T21:58:45.335Z,17.90
2017-08-28T22:01:13.041Z,17.90
2017-08-28T22:03:40.678Z,17.90
2017-08-28T22:06:08.376Z,17.80
2017-08-28T22:08:36.067Z,17.80
2017-08-28T22:11:03.716Z,17.80
2017-08-28T22:13:31.441Z,17.70
2017-08-28T22:15:59.088Z,17.70
2017-08-28T22:18:26.746Z,17.70
2017-08-28T22:20:54.430Z,17.70
2017-08-28T22:23:22.064Z,17.60
2017-08-28T22:25:49.875Z,17.60
2017-08-28T22:28:17.621Z,17.60
2017-08-28T22:30:45.470Z,17.50
2017-08-28T22:33:13.120Z,17.50
2017-08-28T22:35:40.840Z,17.50
2017-08-28T22:38:08.485Z,17.50
2017-08-28T22:40:36.144Z,17.50
2017-08-28T22:43:03.982Z,17.40
2017-08-28T22:45:31.650Z,17.40
2017-08-28T22:47:59.291Z,17.40
2017-08-28T22:50:27.037Z,17.40
2017-08-28T22:52:54.686Z,17.40
2017-08-28T22:55:22.350Z,17.30
2017-08-28T22:57:50.066Z,17.30
2017-08-28T23:00:18.278Z,17.30
2017-08-28T23:02:45.994Z,17.30
2017-08-28T23:05:13.735Z,17.30
2017-08-28T23:07:41.487Z,17.30
2017-08-28T23:10:09.271Z,17.30
2017-08-28T23:12:36.978Z,17.20
2017-08-28T23:15:04.729Z,17.30
2017-08-28T23:17:32.444Z,17.20
2017-08-28T23:20:00.177Z,17.20
2017-08-28T23:22:27.790Z,17.10
2017-08-28T23:24:55.416Z,17.10
2017-08-28T23:27:23.108Z,17.10
2017-08-28T23:29:50.735Z,17.10
2017-08-28T23:32:18.403Z,17.00
2017-08-28T23:34:46.127Z,17.00
2017-08-28T23:37:14.564Z,16.90
2017-08-28T23:39:42.544Z,16.90
2017-08-28T23:42:11.430Z,16.90
2017-08-28T23:44:39.636Z,16.90
2017-08-28T23:47:07.306Z,16.80
2017-08-28T23:49:35.050Z,16.80
2017-08-28T23:52:02.842Z,16.80
2017-08-28T23:54:33.240Z,16.70
2017-08-28T23:57:01.269Z,16.70
2017-08-28T23:59:28.919Z,16.70
